YDKE weather

Drake Oval Helicopter Landing Site
Drake, New South Wales, Australia

Public forecast

Using degrees Celsius for public forecast. Weather courtesy of forecast.io.

Closest aviation weather report (METAR) to Drake Oval Helicopter Landing Site

Closest report is Casino Airport, 36.4 nm (67.4 km) E. Retrieved 2019/10/13 23:00 UTC (36 minutes ago):

YCAS 132300Z AUTO 14004KT //// // ////// 21/13 Q1019

Closest aviation forecast (TAF) to Drake Oval Helicopter Landing Site

Closest forecast is Gold Coast Airport, 75.1 nm (139.0 km) NE. Retrieved 2019/10/13 18:00 UTC (6 hours ago):

TAF YBCG 131700Z 1318/1418 22006KT 9999 FEW025 FM132300 03007KT 9999 FEW030 FM140300 02014KT 9999 FEW030 FM140900 33007KT 9999 FEW025